createdAt,value
2022-08-22T00:02:02.975Z,100864.69
2022-08-22T00:02:43.870Z,100806.34
2022-08-22T00:04:59.667Z,100904.47
2022-08-22T00:07:53.079Z,100882.78
2022-08-22T00:10:31.411Z,100902.28
2022-08-22T00:13:07.594Z,100906.72
2022-08-22T00:15:42.885Z,100913.13
2022-08-22T00:18:36.727Z,100899.44
2022-08-22T00:21:37.840Z,100899.34
2022-08-22T00:24:19.779Z,100898.41
2022-08-22T00:26:59.066Z,100895.56
2022-08-22T00:29:34.972Z,100897.25
2022-08-22T00:32:15.716Z,100901.34
2022-08-22T00:35:07.369Z,100892.06
2022-08-22T00:37:59.789Z,100904.88
2022-08-22T00:40:53.540Z,100911.91
2022-08-22T00:43:41.669Z,100906.59
2022-08-22T00:46:28.884Z,100856.97
2022-08-22T00:49:04.534Z,100894.03
2022-08-22T00:51:56.160Z,100867.41
2022-08-22T00:54:34.082Z,100884.25
2022-08-22T00:57:24.112Z,100813.94
2022-08-22T01:00:14.075Z,100887.75
2022-08-22T01:02:51.842Z,100899.78
2022-08-22T01:05:37.072Z,100890.06
2022-08-22T01:08:22.218Z,100886.44
2022-08-22T01:11:01.238Z,100886.63
2022-08-22T01:14:18.851Z,100890.81
2022-08-22T01:17:19.594Z,100877.81
2022-08-22T01:20:11.188Z,100881.50
2022-08-22T01:23:10.426Z,100881.31
2022-08-22T01:26:08.188Z,100852.72
2022-08-22T01:28:54.785Z,100883.97
2022-08-22T01:31:49.394Z,100879.16
2022-08-22T01:34:37.739Z,100888.09
2022-08-22T01:37:35.796Z,100878.50
2022-08-22T01:40:54.514Z,100853.44
2022-08-22T01:43:51.488Z,100881.75
2022-08-22T01:46:44.536Z,100882.41
2022-08-22T01:49:27.307Z,100878.78
2022-08-22T01:52:01.818Z,100879.16
2022-08-22T01:54:45.086Z,100878.78
2022-08-22T01:57:12.850Z,100875.53
2022-08-22T01:59:44.063Z,100781.72
2022-08-22T02:02:48.154Z,100880.38
2022-08-22T02:05:46.231Z,100843.00
2022-08-22T02:08:21.598Z,100872.28
2022-08-22T02:10:57.806Z,100876.44
2022-08-22T02:13:33.241Z,100823.63
2022-08-22T02:16:12.407Z,100878.56
2022-08-22T02:19:05.189Z,100846.94
2022-08-22T02:21:50.266Z,100872.25
2022-08-22T02:24:47.757Z,100878.78
2022-08-22T02:27:17.569Z,100878.06
2022-08-22T02:29:52.329Z,100844.19
2022-08-22T02:32:24.898Z,100858.25
2022-08-22T02:35:14.205Z,100878.59
2022-08-22T02:37:55.867Z,100846.41
2022-08-22T02:40:31.918Z,100853.28
2022-08-22T02:43:27.445Z,100865.28
2022-08-22T02:46:11.878Z,100870.78
2022-08-22T02:49:15.212Z,100871.25
2022-08-22T02:52:03.218Z,100870.41
2022-08-22T02:54:42.122Z,100871.53
2022-08-22T02:57:27.073Z,100861.84
2022-08-22T03:00:30.959Z,100865.03
2022-08-22T03:03:21.147Z,100863.91
2022-08-22T03:06:00.420Z,100857.81
2022-08-22T03:08:47.418Z,100860.66
2022-08-22T03:11:31.994Z,100843.16
2022-08-22T03:14:20.315Z,100865.66
2022-08-22T03:17:01.582Z,100863.19
2022-08-22T03:19:43.725Z,100854.00
2022-08-22T03:22:32.075Z,100850.94
2022-08-22T03:25:13.707Z,100846.34
2022-08-22T03:28:02.016Z,100848.63
2022-08-22T03:30:35.245Z,100858.47
2022-08-22T03:33:13.595Z,100856.16
2022-08-22T03:35:45.974Z,100851.78
2022-08-22T03:38:33.799Z,100843.88
2022-08-22T03:41:17.687Z,100846.31
2022-08-22T03:44:01.893Z,100832.22
2022-08-22T03:46:50.752Z,100809.09
2022-08-22T03:49:59.764Z,100824.88
2022-08-22T03:53:19.381Z,100838.22
2022-08-22T03:55:51.893Z,100843.69
2022-08-22T03:58:36.801Z,100846.34
2022-08-22T04:01:42.775Z,100810.22
2022-08-22T04:04:38.546Z,100832.66
2022-08-22T04:07:31.553Z,100828.03
2022-08-22T04:10:20.116Z,100827.25
2022-08-22T04:13:12.493Z,100819.00
2022-08-22T04:16:19.448Z,100830.94
2022-08-22T04:19:16.541Z,100828.09
2022-08-22T04:22:06.673Z,100834.19
2022-08-22T04:24:54.538Z,100791.00
2022-08-22T04:27:27.466Z,100833.94
2022-08-22T04:30:25.722Z,100837.00
2022-08-22T04:33:22.173Z,100846.25
2022-08-22T04:36:08.866Z,100838.97
2022-08-22T04:39:05.118Z,100811.78
2022-08-22T04:41:41.743Z,100835.81
2022-08-22T04:44:14.896Z,100823.44
2022-08-22T04:47:02.481Z,100837.84
2022-08-22T04:49:59.166Z,100842.66
2022-08-22T04:52:42.402Z,100833.53
2022-08-22T04:55:29.960Z,100854.44
2022-08-22T04:58:34.030Z,100857.53
2022-08-22T05:01:06.676Z,100858.47
2022-08-22T05:03:44.713Z,100815.13
2022-08-22T05:06:14.422Z,100700.28
2022-08-22T05:08:45.842Z,100857.38
2022-08-22T05:11:19.275Z,100826.16
2022-08-22T05:14:01.645Z,100832.94
2022-08-22T05:16:32.930Z,100805.25
2022-08-22T05:19:11.079Z,100825.50
2022-08-22T05:21:42.715Z,100848.81
2022-08-22T05:24:22.855Z,100856.88
2022-08-22T05:26:57.544Z,100850.16
2022-08-22T05:29:30.611Z,100835.47
2022-08-22T05:32:07.148Z,100866.03
2022-08-22T05:34:39.827Z,100836.66
2022-08-22T05:37:14.211Z,100837.75
2022-08-22T05:39:46.967Z,100857.38
2022-08-22T05:42:22.791Z,100869.38
2022-08-22T05:44:49.521Z,100780.19
2022-08-22T05:47:33.173Z,100813.72
2022-08-22T05:50:14.177Z,100873.28
2022-08-22T05:53:06.034Z,100850.03
2022-08-22T05:55:56.456Z,100883.47
2022-08-22T05:58:50.753Z,100875.09
2022-08-22T06:01:19.825Z,100877.44
2022-08-22T06:04:11.664Z,100856.88
2022-08-22T06:06:46.655Z,100826.00
2022-08-22T06:09:35.371Z,100883.34
2022-08-22T06:12:16.457Z,100877.59
2022-08-22T06:15:13.511Z,100883.28
2022-08-22T06:17:51.581Z,100849.34
2022-08-22T06:20:32.852Z,100825.59
2022-08-22T06:23:02.146Z,100881.78
2022-08-22T06:25:33.152Z,100881.75
2022-08-22T06:28:05.999Z,100856.72
2022-08-22T06:30:34.213Z,100846.88
2022-08-22T06:33:06.782Z,100871.72
2022-08-22T06:35:57.176Z,100874.56
2022-08-22T06:38:47.486Z,100849.06
2022-08-22T06:41:14.133Z,100851.31
2022-08-22T06:43:43.294Z,100841.88
2022-08-22T06:46:13.075Z,100809.16
2022-08-22T06:48:41.223Z,100867.75
2022-08-22T06:51:08.761Z,100851.19
2022-08-22T06:53:48.192Z,100838.09
2022-08-22T06:56:21.913Z,100823.28
2022-08-22T06:58:52.229Z,100829.53
2022-08-22T07:01:25.370Z,100821.47
2022-08-22T07:03:59.433Z,100851.44
2022-08-22T07:06:41.920Z,100839.84
2022-08-22T07:09:31.852Z,100849.22
2022-08-22T07:12:03.139Z,100878.78
2022-08-22T07:14:38.977Z,100841.69
2022-08-22T07:17:08.961Z,100868.03
2022-08-22T07:19:39.735Z,100884.19
2022-08-22T07:22:22.528Z,100885.59
2022-08-22T07:24:54.974Z,100876.88
2022-08-22T07:27:26.118Z,100871.31
2022-08-22T07:30:12.917Z,100878.16
2022-08-22T07:32:43.198Z,100877.00
2022-08-22T07:35:26.942Z,100865.03
2022-08-22T07:38:13.830Z,100887.09
2022-08-22T07:40:58.775Z,100873.00
2022-08-22T07:43:52.156Z,100857.00
2022-08-22T07:46:33.979Z,100890.78
2022-08-22T07:49:17.834Z,100872.19
2022-08-22T07:51:49.582Z,100868.13
2022-08-22T07:54:47.074Z,100891.91
2022-08-22T07:57:13.399Z,100891.69
2022-08-22T07:59:47.214Z,100887.00
2022-08-22T08:02:15.974Z,100884.00
2022-08-22T08:04:43.977Z,100858.78
2022-08-22T08:07:14.822Z,100855.59
2022-08-22T08:09:46.189Z,100872.75
2022-08-22T08:12:15.675Z,100849.78
2022-08-22T08:14:45.358Z,100843.06
2022-08-22T08:17:19.103Z,100872.53
2022-08-22T08:19:47.292Z,100843.84
2022-08-22T08:22:23.606Z,100824.69
2022-08-22T08:24:51.575Z,100844.34
2022-08-22T08:27:41.818Z,100851.59
2022-08-22T08:30:15.743Z,100858.63
2022-08-22T08:32:47.929Z,100859.47
2022-08-22T08:35:28.258Z,100827.94
2022-08-22T08:38:18.372Z,100862.00
2022-08-22T08:41:13.636Z,100851.78
2022-08-22T08:43:57.788Z,100849.59
2022-08-22T08:47:05.792Z,100848.84
2022-08-22T08:49:53.259Z,100841.28
2022-08-22T08:52:52.574Z,100836.22
2022-08-22T08:55:44.919Z,100846.75
2022-08-22T08:58:48.823Z,100846.94
2022-08-22T09:01:43.033Z,100830.06
2022-08-22T09:04:40.721Z,100831.56
2022-08-22T09:07:13.308Z,100837.94
2022-08-22T09:09:46.200Z,100841.38
2022-08-22T09:12:56.474Z,100849.16
2022-08-22T09:16:10.038Z,100817.78
2022-08-22T09:18:48.646Z,100837.44
2022-08-22T09:22:00.287Z,100830.56
2022-08-22T09:25:00.334Z,100819.19
2022-08-22T09:27:45.633Z,100810.09
2022-08-22T09:30:27.725Z,100809.66
2022-08-22T09:33:01.060Z,100831.56
2022-08-22T09:35:33.414Z,100835.06
2022-08-22T09:38:23.519Z,100816.25
2022-08-22T09:41:00.204Z,100831.19
2022-08-22T09:43:45.042Z,100817.53
2022-08-22T09:46:18.552Z,100830.44
2022-08-22T09:49:09.366Z,100808.09
2022-08-22T09:51:52.718Z,100808.66
2022-08-22T09:54:43.647Z,100806.13
2022-08-22T09:57:19.956Z,100835.22
2022-08-22T10:00:17.834Z,100829.38
2022-08-22T10:03:15.731Z,100821.72
2022-08-22T10:05:47.895Z,100827.22
2022-08-22T10:08:46.032Z,100830.78
2022-08-22T10:11:18.800Z,100831.13
2022-08-22T10:13:57.616Z,100836.84
2022-08-22T10:16:58.572Z,100832.94
2022-08-22T10:19:49.444Z,100820.47
2022-08-22T10:22:30.285Z,100820.69
2022-08-22T10:25:28.496Z,100812.59
2022-08-22T10:28:14.717Z,100804.56
2022-08-22T10:30:56.405Z,100810.72
2022-08-22T10:33:32.173Z,100814.97
2022-08-22T10:36:11.978Z,100808.25
2022-08-22T10:38:53.637Z,100784.88
2022-08-22T10:41:32.680Z,100781.91
2022-08-22T10:44:21.529Z,100795.50
2022-08-22T10:47:05.262Z,100787.53
2022-08-22T10:49:45.913Z,100789.88
2022-08-22T10:52:39.217Z,100770.88
2022-08-22T10:55:24.934Z,100791.56
2022-08-22T10:58:10.956Z,100765.50
2022-08-22T11:00:50.491Z,100751.19
2022-08-22T11:03:38.822Z,100796.22
2022-08-22T11:06:21.610Z,100745.13
2022-08-22T11:08:59.739Z,100788.16
2022-08-22T11:11:54.629Z,100784.50
2022-08-22T11:14:36.591Z,100787.13
2022-08-22T11:17:31.097Z,100785.16
2022-08-22T11:20:09.829Z,100750.75
2022-08-22T11:22:55.595Z,100783.03
2022-08-22T11:25:44.244Z,100772.91
2022-08-22T11:28:13.386Z,100762.78
2022-08-22T11:30:57.715Z,100716.81
2022-08-22T11:33:53.031Z,100739.25
2022-08-22T11:36:46.749Z,100770.44
2022-08-22T11:40:05.753Z,100755.69
2022-08-22T11:42:47.421Z,100769.91
2022-08-22T11:45:31.337Z,100776.97
2022-08-22T11:48:02.492Z,100774.47
2022-08-22T11:50:39.037Z,100769.56
2022-08-22T11:53:41.954Z,100772.53
2022-08-22T11:56:22.774Z,100754.41
2022-08-22T11:58:59.367Z,100751.56
2022-08-22T12:01:43.892Z,100737.09
2022-08-22T12:04:25.438Z,100742.81
2022-08-22T12:07:00.994Z,100754.81
2022-08-22T12:09:40.671Z,100716.16
2022-08-22T12:12:34.412Z,100755.00
2022-08-22T12:15:01.595Z,100745.38
2022-08-22T12:17:55.896Z,100750.16
2022-08-22T12:20:40.684Z,100695.56
2022-08-22T12:23:43.687Z,100744.97
2022-08-22T12:26:25.532Z,100742.69
2022-08-22T12:29:15.504Z,100730.50
2022-08-22T12:31:58.241Z,100742.47
2022-08-22T12:34:33.744Z,100746.81
2022-08-22T12:37:30.115Z,100717.56
2022-08-22T12:40:15.998Z,100735.38
2022-08-22T12:43:12.904Z,100718.09
2022-08-22T12:45:51.377Z,100727.69
2022-08-22T12:48:45.977Z,100712.88
2022-08-22T12:51:38.936Z,100718.28
2022-08-22T12:54:36.108Z,100705.16
2022-08-22T12:57:26.627Z,100670.75
2022-08-22T12:59:59.143Z,100663.28
2022-08-22T13:02:34.032Z,100705.16
2022-08-22T13:05:22.484Z,100702.09
2022-08-22T13:08:05.262Z,100705.38
2022-08-22T13:10:38.081Z,100704.53
2022-08-22T13:13:12.349Z,100706.44
2022-08-22T13:15:53.534Z,100701.72
2022-08-22T13:18:30.771Z,100709.03
2022-08-22T13:21:02.465Z,100667.69
2022-08-22T13:23:39.567Z,100652.19
2022-08-22T13:26:24.582Z,100694.34
2022-08-22T13:29:24.715Z,100698.38
2022-08-22T13:31:55.384Z,100699.00
2022-08-22T13:34:50.850Z,100691.63
2022-08-22T13:37:24.740Z,100671.97
2022-08-22T13:39:58.809Z,100682.75
2022-08-22T13:42:29.948Z,100670.50
2022-08-22T13:44:59.717Z,100675.25
2022-08-22T13:47:31.699Z,100665.88
2022-08-22T13:50:13.980Z,100653.25
2022-08-22T13:52:54.959Z,100651.06
2022-08-22T13:55:29.543Z,100652.00
2022-08-22T13:58:30.676Z,100678.78
2022-08-22T14:01:28.593Z,100666.06
2022-08-22T14:04:31.658Z,100666.81
2022-08-22T14:07:02.258Z,100664.81
2022-08-22T14:09:51.321Z,100666.28
2022-08-22T14:12:28.673Z,100623.94
2022-08-22T14:15:03.557Z,100645.00
2022-08-22T14:17:42.994Z,100648.53
2022-08-22T14:20:32.319Z,100655.31
2022-08-22T14:23:07.110Z,100647.34
2022-08-22T14:25:36.565Z,100646.00
2022-08-22T14:28:09.344Z,100658.38
2022-08-22T14:30:51.370Z,100618.25
2022-08-22T14:33:31.958Z,100644.53
2022-08-22T14:36:03.248Z,100635.34
2022-08-22T14:38:32.595Z,100644.66
2022-08-22T14:41:05.218Z,100627.31
2022-08-22T14:43:31.869Z,100633.75
2022-08-22T14:46:06.135Z,100542.41
2022-08-22T14:49:03.182Z,100611.44
2022-08-22T14:51:29.862Z,100614.00
2022-08-22T14:54:14.140Z,100616.91
2022-08-22T14:56:49.635Z,100574.44
2022-08-22T14:59:35.904Z,100595.00
2022-08-22T15:02:09.989Z,100579.56
2022-08-22T15:04:46.027Z,100602.59
2022-08-22T15:07:23.790Z,100620.25
2022-08-22T15:09:55.120Z,100610.47
2022-08-22T15:12:35.412Z,100571.38
2022-08-22T15:15:41.106Z,100611.84
2022-08-22T15:18:33.810Z,100601.00
2022-08-22T15:21:12.385Z,100576.94
2022-08-22T15:23:45.176Z,100610.47
2022-08-22T15:26:25.260Z,100605.34
2022-08-22T15:29:02.026Z,100597.34
2022-08-22T15:31:31.717Z,100601.16
2022-08-22T15:34:08.143Z,100611.97
2022-08-22T15:36:36.133Z,100580.06
2022-08-22T15:39:27.556Z,100598.44
2022-08-22T15:41:55.234Z,100589.13
2022-08-22T15:44:30.773Z,100597.88
2022-08-22T15:47:11.542Z,100604.28
2022-08-22T15:49:53.666Z,100601.31
2022-08-22T15:52:27.088Z,100574.00
2022-08-22T15:54:53.713Z,100613.72
2022-08-22T15:57:32.020Z,100620.84
2022-08-22T16:00:04.208Z,100611.06
2022-08-22T16:02:56.478Z,100599.84
2022-08-22T16:05:37.219Z,100593.69
2022-08-22T16:08:10.984Z,100584.38
2022-08-22T16:10:53.539Z,100610.81
2022-08-22T16:13:26.491Z,100609.13
2022-08-22T16:16:19.738Z,100589.47
2022-08-22T16:18:49.134Z,100610.75
2022-08-22T16:21:22.062Z,100586.91
2022-08-22T16:23:53.679Z,100598.56
2022-08-22T16:26:36.339Z,100548.03
2022-08-22T16:29:17.486Z,100598.53
2022-08-22T16:31:44.312Z,100601.63
2022-08-22T16:34:45.515Z,100526.53
2022-08-22T16:37:25.133Z,100595.34
2022-08-22T16:43:52.690Z,100591.81
2022-08-22T16:46:54.017Z,100599.53
2022-08-22T16:49:32.334Z,100499.47
2022-08-22T16:52:27.813Z,100590.94
2022-08-22T16:54:59.186Z,100588.84
2022-08-22T16:58:05.712Z,100555.97
2022-08-22T17:00:44.643Z,100559.59
2022-08-22T17:03:32.081Z,100583.84
2022-08-22T17:06:01.422Z,100579.63
2022-08-22T17:08:45.644Z,100577.22
2022-08-22T17:11:30.537Z,100574.94
2022-08-22T17:14:21.860Z,100562.88
2022-08-22T17:17:12.764Z,100574.16
2022-08-22T17:19:57.986Z,100584.25
2022-08-22T17:22:31.883Z,100578.19
2022-08-22T17:25:14.069Z,100532.41
2022-08-22T17:27:44.522Z,100523.94
2022-08-22T17:30:29.036Z,100584.72
2022-08-22T17:33:04.326Z,100574.22
2022-08-22T17:36:06.082Z,100581.00
2022-08-22T17:38:41.742Z,100574.00
2022-08-22T17:41:38.009Z,100576.41
2022-08-22T17:44:13.797Z,100582.38
2022-08-22T17:46:40.111Z,100582.69
2022-08-22T17:49:20.789Z,100586.53
2022-08-22T17:51:58.984Z,100528.53
2022-08-22T17:54:29.623Z,100583.44
2022-08-22T17:57:05.982Z,100581.72
2022-08-22T17:59:51.079Z,100584.03
2022-08-22T18:02:31.595Z,100579.81
2022-08-22T18:05:39.893Z,100566.25
2022-08-22T18:11:26.659Z,100598.81
2022-08-22T18:14:09.105Z,100519.06
2022-08-22T18:16:41.970Z,100600.56
2022-08-22T18:19:25.355Z,100598.91
2022-08-22T18:21:59.664Z,100558.78
2022-08-22T18:24:44.872Z,100604.47
2022-08-22T18:27:35.031Z,100609.47
2022-08-22T18:30:24.632Z,100587.72
2022-08-22T18:33:14.656Z,100607.56
2022-08-22T18:35:54.629Z,100609.84
2022-08-22T18:38:26.520Z,100613.25
2022-08-22T18:40:58.248Z,100615.53
2022-08-22T18:43:44.680Z,100593.41
2022-08-22T18:46:38.999Z,100611.84
2022-08-22T18:49:46.425Z,100620.03
2022-08-22T18:52:20.052Z,100557.22
2022-08-22T18:55:15.170Z,100626.59
2022-08-22T18:58:03.714Z,100623.22
2022-08-22T19:01:32.383Z,100621.22
2022-08-22T19:04:41.461Z,100540.56
2022-08-22T19:07:31.146Z,100545.63
2022-08-22T19:10:18.571Z,100510.81
2022-08-22T19:13:03.372Z,100510.25
2022-08-22T19:15:54.461Z,100640.69
2022-08-22T19:18:40.351Z,100616.97
2022-08-22T19:21:40.291Z,100560.00
2022-08-22T19:24:25.125Z,100540.19
2022-08-22T19:27:15.208Z,100572.78
2022-08-22T19:29:41.608Z,100648.97
2022-08-22T19:32:13.029Z,100610.16
2022-08-22T19:34:47.096Z,100548.69
2022-08-22T19:37:32.231Z,100650.25
2022-08-22T19:40:11.606Z,100559.69
2022-08-22T19:42:41.490Z,100585.44
2022-08-22T19:45:28.762Z,100584.84
2022-08-22T19:48:09.470Z,100507.44
2022-08-22T19:50:39.095Z,100612.88
2022-08-22T19:53:24.973Z,100587.63
2022-08-22T19:56:03.820Z,100660.19
2022-08-22T19:58:54.463Z,100665.50
2022-08-22T20:01:33.157Z,100662.16
2022-08-22T20:04:36.673Z,100665.13
2022-08-22T20:07:15.357Z,100566.66
2022-08-22T20:09:54.457Z,100608.88
2022-08-22T20:12:43.915Z,100574.34
2022-08-22T20:15:17.868Z,100555.38
2022-08-22T20:17:44.686Z,100638.25
2022-08-22T20:20:35.257Z,100666.91
2022-08-22T20:23:26.741Z,100650.16
2022-08-22T20:25:55.877Z,100603.34
2022-08-22T20:28:32.251Z,100552.84
2022-08-22T20:31:02.209Z,100564.41
2022-08-22T20:33:34.824Z,100558.09
2022-08-22T20:36:06.161Z,100673.03
2022-08-22T20:38:56.919Z,100584.00
2022-08-22T20:41:26.499Z,100658.63
2022-08-22T20:43:57.099Z,100587.94
2022-08-22T20:46:43.567Z,100622.16
2022-08-22T20:49:18.392Z,100571.97
2022-08-22T20:51:54.480Z,100600.59
2022-08-22T20:54:24.247Z,100652.78
2022-08-22T20:56:57.698Z,100657.03
2022-08-22T20:59:35.873Z,100655.84
2022-08-22T21:02:15.657Z,100658.38
2022-08-22T21:05:00.101Z,100650.69
2022-08-22T21:07:31.238Z,100635.31
2022-08-22T21:10:27.462Z,100574.28
2022-08-22T21:13:33.228Z,100628.50
2022-08-22T21:16:11.287Z,100597.66
2022-08-22T21:18:41.633Z,100651.94
2022-08-22T21:21:18.205Z,100650.50
2022-08-22T21:24:06.598Z,100654.16
2022-08-22T21:26:33.005Z,100649.75
2022-08-22T21:29:05.452Z,100658.06
2022-08-22T21:31:42.352Z,100660.03
2022-08-22T21:34:20.720Z,100561.34
2022-08-22T21:36:50.916Z,100617.31
2022-08-22T21:39:21.937Z,100637.38
2022-08-22T21:41:52.740Z,100641.28
2022-08-22T21:44:28.343Z,100655.78
2022-08-22T21:46:55.789Z,100643.84
2022-08-22T21:49:31.672Z,100589.59
2022-08-22T21:51:58.179Z,100607.31
2022-08-22T21:54:24.546Z,100650.03
2022-08-22T21:56:53.726Z,100616.72
2022-08-22T21:59:26.819Z,100608.78
2022-08-22T22:02:31.277Z,100549.13
2022-08-22T22:05:02.452Z,100654.34
2022-08-22T22:07:29.179Z,100588.75
2022-08-22T22:09:56.075Z,100549.84
2022-08-22T22:12:23.023Z,100629.66
2022-08-22T22:14:49.957Z,100654.09
2022-08-22T22:17:18.857Z,100628.72
2022-08-22T22:19:45.558Z,100648.06
2022-08-22T22:22:12.074Z,100639.31
2022-08-22T22:24:38.604Z,100618.38
2022-08-22T22:27:05.797Z,100610.59
2022-08-22T22:29:33.928Z,100654.88
2022-08-22T22:32:00.405Z,100647.00
2022-08-22T22:34:26.859Z,100635.16
2022-08-22T22:36:54.020Z,100535.19
2022-08-22T22:39:20.438Z,100598.66
2022-08-22T22:41:46.961Z,100638.13
2022-08-22T22:44:13.374Z,100613.28
2022-08-22T22:46:39.961Z,100543.91
2022-08-22T22:49:06.448Z,100591.63
2022-08-22T22:51:33.266Z,100635.16
2022-08-22T22:53:59.866Z,100629.81
2022-08-22T22:56:27.363Z,100628.34
2022-08-22T22:59:00.745Z,100619.47
2022-08-22T23:01:58.577Z,100630.06
2022-08-22T23:04:25.025Z,100577.72
2022-08-22T23:06:51.439Z,100536.13
2022-08-22T23:09:17.852Z,100527.34
2022-08-22T23:11:44.430Z,100559.44
2022-08-22T23:14:10.956Z,100639.78
2022-08-22T23:16:39.493Z,100626.28
2022-08-22T23:19:10.486Z,100615.44
2022-08-22T23:21:37.680Z,100613.72
2022-08-22T23:24:04.251Z,100641.72
2022-08-22T23:26:30.963Z,100653.38
2022-08-22T23:28:58.533Z,100658.38
2022-08-22T23:31:37.587Z,100654.81
2022-08-22T23:34:12.692Z,100658.84
2022-08-22T23:36:41.156Z,100652.88
2022-08-22T23:39:09.364Z,100650.91
2022-08-22T23:41:36.605Z,100585.75
2022-08-22T23:44:05.777Z,100660.38
2022-08-22T23:46:32.770Z,100655.50
2022-08-22T23:49:02.441Z,100661.53
2022-08-22T23:51:29.167Z,100636.91
2022-08-22T23:53:57.596Z,100667.56
2022-08-22T23:56:29.600Z,100658.06
2022-08-22T23:58:57.213Z,100563.84
